sensor_id;sensor_type;location;lat;lon;timestamp;P1;durP1;ratioP1;P2;durP2;ratioP2
61385;SDS011;47256;18.904;-99.054;2022-12-18T00:02:27;31.45;;;10.13;;
61385;SDS011;47256;18.904;-99.054;2022-12-18T00:04:56;23.60;;;9.65;;
61385;SDS011;47256;18.904;-99.054;2022-12-18T00:07:23;22.83;;;8.05;;
61385;SDS011;47256;18.904;-99.054;2022-12-18T00:09:50;39.42;;;8.73;;
61385;SDS011;47256;18.904;-99.054;2022-12-18T00:12:17;19.98;;;7.45;;
61385;SDS011;47256;18.904;-99.054;2022-12-18T00:14:47;36.10;;;7.50;;
61385;SDS011;47256;18.904;-99.054;2022-12-18T00:17:17;14.75;;;7.82;;
61385;SDS011;47256;18.904;-99.054;2022-12-18T00:19:44;23.25;;;6.18;;
61385;SDS011;47256;18.904;-99.054;2022-12-18T00:22:12;14.88;;;5.90;;
61385;SDS011;47256;18.904;-99.054;2022-12-18T00:24:39;19.42;;;6.75;;
61385;SDS011;47256;18.904;-99.054;2022-12-18T00:27:06;19.38;;;7.03;;
61385;SDS011;47256;18.904;-99.054;2022-12-18T00:29:38;15.70;;;5.93;;
61385;SDS011;47256;18.904;-99.054;2022-12-18T00:32:05;18.85;;;7.25;;
61385;SDS011;47256;18.904;-99.054;2022-12-18T00:34:34;35.55;;;6.45;;
61385;SDS011;47256;18.904;-99.054;2022-12-18T00:37:01;19.08;;;6.05;;
61385;SDS011;47256;18.904;-99.054;2022-12-18T00:39:28;24.63;;;7.63;;
61385;SDS011;47256;18.904;-99.054;2022-12-18T00:41:58;14.70;;;6.28;;
61385;SDS011;47256;18.904;-99.054;2022-12-18T00:44:44;19.42;;;6.35;;
61385;SDS011;47256;18.904;-99.054;2022-12-18T00:47:12;9.82;;;6.22;;
61385;SDS011;47256;18.904;-99.054;2022-12-18T00:49:41;13.40;;;6.43;;
61385;SDS011;47256;18.904;-99.054;2022-12-18T00:52:08;8.00;;;5.40;;
61385;SDS011;47256;18.904;-99.054;2022-12-18T00:54:36;9.57;;;5.45;;
61385;SDS011;47256;18.904;-99.054;2022-12-18T00:57:03;9.82;;;6.40;;
61385;SDS011;47256;18.904;-99.054;2022-12-18T00:59:31;14.13;;;6.45;;
61385;SDS011;47256;18.904;-99.054;2022-12-18T01:01:58;15.82;;;7.15;;
61385;SDS011;47256;18.904;-99.054;2022-12-18T01:04:26;17.33;;;6.75;;
61385;SDS011;47256;18.904;-99.054;2022-12-18T01:06:53;35.55;;;7.47;;
61385;SDS011;47256;18.904;-99.054;2022-12-18T01:09:21;19.13;;;7.88;;
61385;SDS011;47256;18.904;-99.054;2022-12-18T01:11:48;19.85;;;8.50;;
61385;SDS011;47256;18.904;-99.054;2022-12-18T01:14:17;16.42;;;8.10;;
61385;SDS011;47256;18.904;-99.054;2022-12-18T01:16:44;14.98;;;7.10;;
61385;SDS011;47256;18.904;-99.054;2022-12-18T01:19:13;19.40;;;7.38;;
61385;SDS011;47256;18.904;-99.054;2022-12-18T01:21:40;12.20;;;6.72;;
61385;SDS011;47256;18.904;-99.054;2022-12-18T01:24:09;15.50;;;7.75;;
61385;SDS011;47256;18.904;-99.054;2022-12-18T01:26:37;13.60;;;7.78;;
61385;SDS011;47256;18.904;-99.054;2022-12-18T01:29:07;11.90;;;6.05;;
61385;SDS011;47256;18.904;-99.054;2022-12-18T01:31:34;13.45;;;7.50;;
61385;SDS011;47256;18.904;-99.054;2022-12-18T01:34:02;15.60;;;7.80;;
61385;SDS011;47256;18.904;-99.054;2022-12-18T01:36:32;18.17;;;8.50;;
61385;SDS011;47256;18.904;-99.054;2022-12-18T01:39:05;29.15;;;14.32;;
61385;SDS011;47256;18.904;-99.054;2022-12-18T01:41:36;20.58;;;9.30;;
61385;SDS011;47256;18.904;-99.054;2022-12-18T01:50:17;23.10;;;10.88;;
61385;SDS011;47256;18.904;-99.054;2022-12-18T01:52:54;32.05;;;10.32;;
61385;SDS011;47256;18.904;-99.054;2022-12-18T01:55:31;33.70;;;12.02;;
61385;SDS011;47256;18.904;-99.054;2022-12-18T01:58:03;31.33;;;11.82;;
61385;SDS011;47256;18.904;-99.054;2022-12-18T02:00:31;27.40;;;11.63;;
61385;SDS011;47256;18.904;-99.054;2022-12-18T02:02:59;16.50;;;8.35;;
61385;SDS011;47256;18.904;-99.054;2022-12-18T02:05:49;20.80;;;9.00;;
61385;SDS011;47256;18.904;-99.054;2022-12-18T02:11:17;51.70;;;16.75;;
61385;SDS011;47256;18.904;-99.054;2022-12-18T02:14:00;30.38;;;14.77;;
61385;SDS011;47256;18.904;-99.054;2022-12-18T02:16:59;41.67;;;13.43;;
61385;SDS011;47256;18.904;-99.054;2022-12-18T02:22:20;25.27;;;12.60;;
61385;SDS011;47256;18.904;-99.054;2022-12-18T02:25:51;33.03;;;13.02;;
61385;SDS011;47256;18.904;-99.054;2022-12-18T02:28:26;27.00;;;11.05;;
61385;SDS011;47256;18.904;-99.054;2022-12-18T02:31:04;34.53;;;10.38;;
61385;SDS011;47256;18.904;-99.054;2022-12-18T02:33:36;18.23;;;10.60;;
61385;SDS011;47256;18.904;-99.054;2022-12-18T02:36:06;23.55;;;9.88;;
61385;SDS011;47256;18.904;-99.054;2022-12-18T02:38:36;21.52;;;9.70;;
61385;SDS011;47256;18.904;-99.054;2022-12-18T02:41:10;24.75;;;10.38;;
61385;SDS011;47256;18.904;-99.054;2022-12-18T02:43:45;22.50;;;12.15;;
61385;SDS011;47256;18.904;-99.054;2022-12-18T02:46:29;36.95;;;13.73;;
61385;SDS011;47256;18.904;-99.054;2022-12-18T02:49:10;25.80;;;12.18;;
61385;SDS011;47256;18.904;-99.054;2022-12-18T02:58:01;31.27;;;13.95;;
61385;SDS011;47256;18.904;-99.054;2022-12-18T03:00:51;22.45;;;11.35;;
61385;SDS011;47256;18.904;-99.054;2022-12-18T03:03:34;31.98;;;10.18;;
61385;SDS011;47256;18.904;-99.054;2022-12-18T03:06:28;21.37;;;11.33;;
61385;SDS011;47256;18.904;-99.054;2022-12-18T03:09:11;34.28;;;11.10;;
61385;SDS011;47256;18.904;-99.054;2022-12-18T03:11:44;45.60;;;12.37;;
61385;SDS011;47256;18.904;-99.054;2022-12-18T03:14:49;31.83;;;10.80;;
61385;SDS011;47256;18.904;-99.054;2022-12-18T03:18:24;19.65;;;10.18;;
61385;SDS011;47256;18.904;-99.054;2022-12-18T03:21:05;26.45;;;11.57;;
61385;SDS011;47256;18.904;-99.054;2022-12-18T03:23:45;25.95;;;10.60;;
61385;SDS011;47256;18.904;-99.054;2022-12-18T03:26:18;35.72;;;10.35;;
61385;SDS011;47256;18.904;-99.054;2022-12-18T03:28:59;27.33;;;10.25;;
61385;SDS011;47256;18.904;-99.054;2022-12-18T03:31:34;30.92;;;10.20;;
61385;SDS011;47256;18.904;-99.054;2022-12-18T03:34:12;21.52;;;8.70;;
61385;SDS011;47256;18.904;-99.054;2022-12-18T03:36:45;32.30;;;8.52;;
61385;SDS011;47256;18.904;-99.054;2022-12-18T03:39:14;24.67;;;11.13;;
61385;SDS011;47256;18.904;-99.054;2022-12-18T03:41:51;16.10;;;8.73;;
61385;SDS011;47256;18.904;-99.054;2022-12-18T03:44:43;19.10;;;9.15;;
61385;SDS011;47256;18.904;-99.054;2022-12-18T03:47:25;17.55;;;8.15;;
61385;SDS011;47256;18.904;-99.054;2022-12-18T03:52:56;12.98;;;7.65;;
61385;SDS011;47256;18.904;-99.054;2022-12-18T03:55:35;21.08;;;7.38;;
61385;SDS011;47256;18.904;-99.054;2022-12-18T03:58:05;18.45;;;7.50;;
61385;SDS011;47256;18.904;-99.054;2022-12-18T04:00:58;15.68;;;6.82;;
61385;SDS011;47256;18.904;-99.054;2022-12-18T04:03:31;86.35;;;11.00;;
61385;SDS011;47256;18.904;-99.054;2022-12-18T04:06:04;28.40;;;7.75;;
61385;SDS011;47256;18.904;-99.054;2022-12-18T04:08:34;20.30;;;7.70;;
61385;SDS011;47256;18.904;-99.054;2022-12-18T04:11:06;23.00;;;7.53;;
61385;SDS011;47256;18.904;-99.054;2022-12-18T04:13:36;17.52;;;7.00;;
61385;SDS011;47256;18.904;-99.054;2022-12-18T04:16:15;17.55;;;7.68;;
61385;SDS011;47256;18.904;-99.054;2022-12-18T04:18:48;15.98;;;7.40;;
61385;SDS011;47256;18.904;-99.054;2022-12-18T04:21:15;18.33;;;6.68;;
61385;SDS011;47256;18.904;-99.054;2022-12-18T04:23:43;15.02;;;7.63;;
61385;SDS011;47256;18.904;-99.054;2022-12-18T04:26:14;16.25;;;8.18;;
61385;SDS011;47256;18.904;-99.054;2022-12-18T04:29:03;16.05;;;7.50;;
61385;SDS011;47256;18.904;-99.054;2022-12-18T04:31:32;24.23;;;6.70;;
61385;SDS011;47256;18.904;-99.054;2022-12-18T04:34:00;18.60;;;8.07;;
61385;SDS011;47256;18.904;-99.054;2022-12-18T04:36:28;12.82;;;7.35;;
61385;SDS011;47256;18.904;-99.054;2022-12-18T04:38:57;20.70;;;7.50;;
61385;SDS011;47256;18.904;-99.054;2022-12-18T04:41:26;30.77;;;8.13;;
61385;SDS011;47256;18.904;-99.054;2022-12-18T04:43:54;17.00;;;8.18;;
61385;SDS011;47256;18.904;-99.054;2022-12-18T04:46:24;17.45;;;8.60;;
61385;SDS011;47256;18.904;-99.054;2022-12-18T04:48:52;26.35;;;9.38;;
61385;SDS011;47256;18.904;-99.054;2022-12-18T04:51:19;19.88;;;8.45;;
61385;SDS011;47256;18.904;-99.054;2022-12-18T04:53:48;13.98;;;7.60;;
61385;SDS011;47256;18.904;-99.054;2022-12-18T04:56:16;24.25;;;8.43;;
61385;SDS011;47256;18.904;-99.054;2022-12-18T04:58:44;16.00;;;8.48;;
61385;SDS011;47256;18.904;-99.054;2022-12-18T05:01:12;15.45;;;10.38;;
61385;SDS011;47256;18.904;-99.054;2022-12-18T05:03:42;18.15;;;10.45;;
61385;SDS011;47256;18.904;-99.054;2022-12-18T05:06:10;18.58;;;9.35;;
61385;SDS011;47256;18.904;-99.054;2022-12-18T05:08:39;28.08;;;10.50;;
61385;SDS011;47256;18.904;-99.054;2022-12-18T05:11:07;19.35;;;10.90;;
61385;SDS011;47256;18.904;-99.054;2022-12-18T05:13:39;38.45;;;10.80;;
61385;SDS011;47256;18.904;-99.054;2022-12-18T05:16:12;33.95;;;11.57;;
61385;SDS011;47256;18.904;-99.054;2022-12-18T05:18:42;29.67;;;10.20;;
61385;SDS011;47256;18.904;-99.054;2022-12-18T05:21:09;26.83;;;11.60;;
61385;SDS011;47256;18.904;-99.054;2022-12-18T05:23:38;22.80;;;10.77;;
61385;SDS011;47256;18.904;-99.054;2022-12-18T05:26:05;23.42;;;10.38;;
61385;SDS011;47256;18.904;-99.054;2022-12-18T05:28:35;33.28;;;11.25;;
61385;SDS011;47256;18.904;-99.054;2022-12-18T05:31:03;26.10;;;11.85;;
61385;SDS011;47256;18.904;-99.054;2022-12-18T05:33:34;34.53;;;12.40;;
61385;SDS011;47256;18.904;-99.054;2022-12-18T05:36:02;34.30;;;10.57;;
61385;SDS011;47256;18.904;-99.054;2022-12-18T05:38:32;32.83;;;11.50;;
61385;SDS011;47256;18.904;-99.054;2022-12-18T05:41:00;25.23;;;10.73;;
61385;SDS011;47256;18.904;-99.054;2022-12-18T05:43:29;18.58;;;9.98;;
61385;SDS011;47256;18.904;-99.054;2022-12-18T05:45:56;33.03;;;10.85;;
61385;SDS011;47256;18.904;-99.054;2022-12-18T05:48:23;32.45;;;10.93;;
61385;SDS011;47256;18.904;-99.054;2022-12-18T05:50:51;25.00;;;10.82;;
61385;SDS011;47256;18.904;-99.054;2022-12-18T05:53:20;15.43;;;9.52;;
61385;SDS011;47256;18.904;-99.054;2022-12-18T05:55:48;22.10;;;10.63;;
61385;SDS011;47256;18.904;-99.054;2022-12-18T05:58:16;27.15;;;10.90;;
61385;SDS011;47256;18.904;-99.054;2022-12-18T06:00:44;26.63;;;10.93;;
61385;SDS011;47256;18.904;-99.054;2022-12-18T06:03:14;25.48;;;10.00;;
61385;SDS011;47256;18.904;-99.054;2022-12-18T06:05:43;22.13;;;10.02;;
61385;SDS011;47256;18.904;-99.054;2022-12-18T06:08:12;38.78;;;10.85;;
61385;SDS011;47256;18.904;-99.054;2022-12-18T06:10:48;24.13;;;8.93;;
61385;SDS011;47256;18.904;-99.054;2022-12-18T06:15:47;22.13;;;8.70;;
61385;SDS011;47256;18.904;-99.054;2022-12-18T06:18:20;21.42;;;9.35;;
61385;SDS011;47256;18.904;-99.054;2022-12-18T06:20:56;23.77;;;9.50;;
61385;SDS011;47256;18.904;-99.054;2022-12-18T06:23:27;15.38;;;8.95;;
61385;SDS011;47256;18.904;-99.054;2022-12-18T06:25:54;28.02;;;9.02;;
61385;SDS011;47256;18.904;-99.054;2022-12-18T06:28:25;17.33;;;8.75;;
61385;SDS011;47256;18.904;-99.054;2022-12-18T06:30:52;20.95;;;10.23;;
61385;SDS011;47256;18.904;-99.054;2022-12-18T06:33:19;24.33;;;10.32;;
61385;SDS011;47256;18.904;-99.054;2022-12-18T06:35:47;19.73;;;9.77;;
61385;SDS011;47256;18.904;-99.054;2022-12-18T06:38:16;20.83;;;10.85;;
61385;SDS011;47256;18.904;-99.054;2022-12-18T06:40:43;28.52;;;10.65;;
61385;SDS011;47256;18.904;-99.054;2022-12-18T06:43:10;19.13;;;10.00;;
61385;SDS011;47256;18.904;-99.054;2022-12-18T06:45:38;22.40;;;8.75;;
61385;SDS011;47256;18.904;-99.054;2022-12-18T06:48:06;19.15;;;9.50;;
61385;SDS011;47256;18.904;-99.054;2022-12-18T06:50:33;15.98;;;9.55;;
61385;SDS011;47256;18.904;-99.054;2022-12-18T06:53:02;16.20;;;9.02;;
61385;SDS011;47256;18.904;-99.054;2022-12-18T06:55:29;14.02;;;8.68;;
61385;SDS011;47256;18.904;-99.054;2022-12-18T06:57:57;16.55;;;8.95;;
61385;SDS011;47256;18.904;-99.054;2022-12-18T07:00:25;19.08;;;9.50;;
61385;SDS011;47256;18.904;-99.054;2022-12-18T07:02:53;15.38;;;9.35;;
61385;SDS011;47256;18.904;-99.054;2022-12-18T07:05:21;16.52;;;8.90;;
61385;SDS011;47256;18.904;-99.054;2022-12-18T07:07:49;15.05;;;8.30;;
61385;SDS011;47256;18.904;-99.054;2022-12-18T07:10:18;18.20;;;9.65;;
61385;SDS011;47256;18.904;-99.054;2022-12-18T07:12:45;18.38;;;8.82;;
61385;SDS011;47256;18.904;-99.054;2022-12-18T07:15:13;17.42;;;7.97;;
61385;SDS011;47256;18.904;-99.054;2022-12-18T07:17:46;15.63;;;8.77;;
61385;SDS011;47256;18.904;-99.054;2022-12-18T07:20:13;13.02;;;7.95;;
61385;SDS011;47256;18.904;-99.054;2022-12-18T07:22:40;16.27;;;9.18;;
61385;SDS011;47256;18.904;-99.054;2022-12-18T07:25:08;20.00;;;8.60;;
61385;SDS011;47256;18.904;-99.054;2022-12-18T07:27:35;20.08;;;9.18;;
61385;SDS011;47256;18.904;-99.054;2022-12-18T07:30:04;16.35;;;8.10;;
61385;SDS011;47256;18.904;-99.054;2022-12-18T07:32:32;11.82;;;8.10;;
61385;SDS011;47256;18.904;-99.054;2022-12-18T07:35:00;12.07;;;7.75;;
61385;SDS011;47256;18.904;-99.054;2022-12-18T07:37:27;17.02;;;7.72;;
61385;SDS011;47256;18.904;-99.054;2022-12-18T07:39:54;11.35;;;7.90;;
61385;SDS011;47256;18.904;-99.054;2022-12-18T07:42:23;15.77;;;8.30;;
61385;SDS011;47256;18.904;-99.054;2022-12-18T07:44:57;30.75;;;8.60;;
61385;SDS011;47256;18.904;-99.054;2022-12-18T07:47:26;18.10;;;7.93;;
61385;SDS011;47256;18.904;-99.054;2022-12-18T07:49:54;18.48;;;8.45;;
61385;SDS011;47256;18.904;-99.054;2022-12-18T07:52:22;15.05;;;7.93;;
61385;SDS011;47256;18.904;-99.054;2022-12-18T07:54:51;16.38;;;9.35;;
61385;SDS011;47256;18.904;-99.054;2022-12-18T07:57:19;14.68;;;7.25;;
61385;SDS011;47256;18.904;-99.054;2022-12-18T07:59:46;11.63;;;6.88;;
61385;SDS011;47256;18.904;-99.054;2022-12-18T08:02:14;13.73;;;7.50;;
61385;SDS011;47256;18.904;-99.054;2022-12-18T08:04:42;14.13;;;7.82;;
61385;SDS011;47256;18.904;-99.054;2022-12-18T08:07:10;16.75;;;7.05;;
61385;SDS011;47256;18.904;-99.054;2022-12-18T08:09:37;18.67;;;9.05;;
61385;SDS011;47256;18.904;-99.054;2022-12-18T08:12:05;17.02;;;8.90;;
61385;SDS011;47256;18.904;-99.054;2022-12-18T08:14:33;13.10;;;7.68;;
61385;SDS011;47256;18.904;-99.054;2022-12-18T08:17:03;18.50;;;8.48;;
61385;SDS011;47256;18.904;-99.054;2022-12-18T08:19:31;15.63;;;7.53;;
61385;SDS011;47256;18.904;-99.054;2022-12-18T08:21:58;25.83;;;8.27;;
61385;SDS011;47256;18.904;-99.054;2022-12-18T08:24:26;21.65;;;8.35;;
61385;SDS011;47256;18.904;-99.054;2022-12-18T08:26:53;21.90;;;7.88;;
61385;SDS011;47256;18.904;-99.054;2022-12-18T08:29:22;19.45;;;8.30;;
61385;SDS011;47256;18.904;-99.054;2022-12-18T08:31:49;12.85;;;7.63;;
61385;SDS011;47256;18.904;-99.054;2022-12-18T08:34:17;10.38;;;7.50;;
61385;SDS011;47256;18.904;-99.054;2022-12-18T08:36:44;13.90;;;7.65;;
61385;SDS011;47256;18.904;-99.054;2022-12-18T08:39:12;13.73;;;7.55;;
61385;SDS011;47256;18.904;-99.054;2022-12-18T08:41:39;12.55;;;7.07;;
61385;SDS011;47256;18.904;-99.054;2022-12-18T08:44:07;12.30;;;6.82;;
61385;SDS011;47256;18.904;-99.054;2022-12-18T08:46:55;13.60;;;7.45;;
61385;SDS011;47256;18.904;-99.054;2022-12-18T08:49:22;10.18;;;5.85;;
61385;SDS011;47256;18.904;-99.054;2022-12-18T08:51:53;15.05;;;7.20;;
61385;SDS011;47256;18.904;-99.054;2022-12-18T08:54:23;15.27;;;7.03;;
61385;SDS011;47256;18.904;-99.054;2022-12-18T08:56:51;11.02;;;6.75;;
61385;SDS011;47256;18.904;-99.054;2022-12-18T08:59:19;13.05;;;7.40;;
61385;SDS011;47256;18.904;-99.054;2022-12-18T09:01:46;11.25;;;7.40;;
61385;SDS011;47256;18.904;-99.054;2022-12-18T09:04:14;12.88;;;7.32;;
61385;SDS011;47256;18.904;-99.054;2022-12-18T09:06:41;14.02;;;6.47;;
61385;SDS011;47256;18.904;-99.054;2022-12-18T09:09:11;13.93;;;6.72;;
61385;SDS011;47256;18.904;-99.054;2022-12-18T09:11:39;9.38;;;5.38;;
61385;SDS011;47256;18.904;-99.054;2022-12-18T09:14:08;8.85;;;5.50;;
61385;SDS011;47256;18.904;-99.054;2022-12-18T09:16:43;10.15;;;6.70;;
61385;SDS011;47256;18.904;-99.054;2022-12-18T09:19:13;12.30;;;5.60;;
61385;SDS011;47256;18.904;-99.054;2022-12-18T09:21:41;11.68;;;6.40;;
61385;SDS011;47256;18.904;-99.054;2022-12-18T09:24:10;10.18;;;6.25;;
61385;SDS011;47256;18.904;-99.054;2022-12-18T09:26:41;14.20;;;6.70;;
61385;SDS011;47256;18.904;-99.054;2022-12-18T09:29:09;13.73;;;6.38;;
61385;SDS011;47256;18.904;-99.054;2022-12-18T09:31:36;12.38;;;6.70;;
61385;SDS011;47256;18.904;-99.054;2022-12-18T09:34:05;10.98;;;5.93;;
61385;SDS011;47256;18.904;-99.054;2022-12-18T09:36:33;11.85;;;5.47;;
61385;SDS011;47256;18.904;-99.054;2022-12-18T09:39:01;16.45;;;6.85;;
61385;SDS011;47256;18.904;-99.054;2022-12-18T09:41:41;10.88;;;5.65;;
61385;SDS011;47256;18.904;-99.054;2022-12-18T09:52:09;11.35;;;7.05;;
61385;SDS011;47256;18.904;-99.054;2022-12-18T09:54:51;11.43;;;6.10;;
61385;SDS011;47256;18.904;-99.054;2022-12-18T09:57:26;13.63;;;6.38;;
61385;SDS011;47256;18.904;-99.054;2022-12-18T10:00:06;13.30;;;6.95;;
61385;SDS011;47256;18.904;-99.054;2022-12-18T10:02:46;12.57;;;7.03;;
61385;SDS011;47256;18.904;-99.054;2022-12-18T10:08:33;12.80;;;6.85;;
61385;SDS011;47256;18.904;-99.054;2022-12-18T10:19:59;13.85;;;7.38;;
61385;SDS011;47256;18.904;-99.054;2022-12-18T10:27:46;12.70;;;6.22;;
61385;SDS011;47256;18.904;-99.054;2022-12-18T10:30:17;10.70;;;6.95;;
61385;SDS011;47256;18.904;-99.054;2022-12-18T10:32:49;16.33;;;6.90;;
61385;SDS011;47256;18.904;-99.054;2022-12-18T10:35:18;12.48;;;6.80;;
61385;SDS011;47256;18.904;-99.054;2022-12-18T10:38:03;12.13;;;7.40;;
61385;SDS011;47256;18.904;-99.054;2022-12-18T10:40:47;14.50;;;6.75;;
61385;SDS011;47256;18.904;-99.054;2022-12-18T10:44:18;13.70;;;7.70;;
61385;SDS011;47256;18.904;-99.054;2022-12-18T10:46:47;14.55;;;6.90;;
61385;SDS011;47256;18.904;-99.054;2022-12-18T10:49:24;20.83;;;8.93;;
61385;SDS011;47256;18.904;-99.054;2022-12-18T10:54:58;15.27;;;7.93;;
61385;SDS011;47256;18.904;-99.054;2022-12-18T10:57:31;13.75;;;7.85;;
61385;SDS011;47256;18.904;-99.054;2022-12-18T11:00:18;15.23;;;8.02;;
61385;SDS011;47256;18.904;-99.054;2022-12-18T11:02:49;10.93;;;6.93;;
61385;SDS011;47256;18.904;-99.054;2022-12-18T11:05:28;12.82;;;6.57;;
61385;SDS011;47256;18.904;-99.054;2022-12-18T11:07:58;14.93;;;7.88;;
61385;SDS011;47256;18.904;-99.054;2022-12-18T11:10:31;21.60;;;7.60;;
61385;SDS011;47256;18.904;-99.054;2022-12-18T11:13:30;14.20;;;7.43;;
61385;SDS011;47256;18.904;-99.054;2022-12-18T11:16:23;10.65;;;6.32;;
61385;SDS011;47256;18.904;-99.054;2022-12-18T11:18:52;21.70;;;7.10;;
61385;SDS011;47256;18.904;-99.054;2022-12-18T11:21:19;10.30;;;6.40;;
61385;SDS011;47256;18.904;-99.054;2022-12-18T11:23:48;12.32;;;6.75;;
61385;SDS011;47256;18.904;-99.054;2022-12-18T11:26:17;11.10;;;6.05;;
61385;SDS011;47256;18.904;-99.054;2022-12-18T11:28:51;10.25;;;5.22;;
61385;SDS011;47256;18.904;-99.054;2022-12-18T11:31:34;10.50;;;5.75;;
61385;SDS011;47256;18.904;-99.054;2022-12-18T11:37:05;10.80;;;6.10;;
61385;SDS011;47256;18.904;-99.054;2022-12-18T11:39:57;11.65;;;6.68;;
61385;SDS011;47256;18.904;-99.054;2022-12-18T11:45:51;12.93;;;6.38;;
61385;SDS011;47256;18.904;-99.054;2022-12-18T11:48:43;15.70;;;6.07;;
61385;SDS011;47256;18.904;-99.054;2022-12-18T11:51:41;8.98;;;5.70;;
61385;SDS011;47256;18.904;-99.054;2022-12-18T11:54:18;19.25;;;6.43;;
61385;SDS011;47256;18.904;-99.054;2022-12-18T12:08:02;16.35;;;5.68;;
61385;SDS011;47256;18.904;-99.054;2022-12-18T12:14:01;11.48;;;6.30;;
61385;SDS011;47256;18.904;-99.054;2022-12-18T12:22:32;10.73;;;5.97;;
61385;SDS011;47256;18.904;-99.054;2022-12-18T12:25:25;12.30;;;5.63;;
61385;SDS011;47256;18.904;-99.054;2022-12-18T12:34:01;9.05;;;5.15;;
61385;SDS011;47256;18.904;-99.054;2022-12-18T12:39:01;9.02;;;6.00;;
61385;SDS011;47256;18.904;-99.054;2022-12-18T12:41:37;9.55;;;5.43;;
61385;SDS011;47256;18.904;-99.054;2022-12-18T12:44:30;11.30;;;6.10;;
61385;SDS011;47256;18.904;-99.054;2022-12-18T12:49:55;11.05;;;5.82;;
61385;SDS011;47256;18.904;-99.054;2022-12-18T12:55:01;10.73;;;6.38;;
61385;SDS011;47256;18.904;-99.054;2022-12-18T12:57:34;10.20;;;5.90;;
61385;SDS011;47256;18.904;-99.054;2022-12-18T13:00:15;10.32;;;5.18;;
61385;SDS011;47256;18.904;-99.054;2022-12-18T13:08:25;9.80;;;5.25;;
61385;SDS011;47256;18.904;-99.054;2022-12-18T13:10:54;10.55;;;4.85;;
61385;SDS011;47256;18.904;-99.054;2022-12-18T13:13:52;14.68;;;6.00;;
61385;SDS011;47256;18.904;-99.054;2022-12-18T13:16:30;12.18;;;6.60;;
61385;SDS011;47256;18.904;-99.054;2022-12-18T13:19:00;17.95;;;6.13;;
61385;SDS011;47256;18.904;-99.054;2022-12-18T13:21:32;12.05;;;5.45;;
61385;SDS011;47256;18.904;-99.054;2022-12-18T13:24:14;13.73;;;5.57;;
61385;SDS011;47256;18.904;-99.054;2022-12-18T13:26:53;9.48;;;5.57;;
61385;SDS011;47256;18.904;-99.054;2022-12-18T13:32:24;10.70;;;5.45;;
61385;SDS011;47256;18.904;-99.054;2022-12-18T13:37:56;10.50;;;5.50;;
61385;SDS011;47256;18.904;-99.054;2022-12-18T13:48:50;11.40;;;5.05;;
61385;SDS011;47256;18.904;-99.054;2022-12-18T13:51:52;10.15;;;5.53;;
61385;SDS011;47256;18.904;-99.054;2022-12-18T13:54:31;10.65;;;5.97;;
61385;SDS011;47256;18.904;-99.054;2022-12-18T13:57:04;17.63;;;6.93;;
61385;SDS011;47256;18.904;-99.054;2022-12-18T13:59:56;13.90;;;6.23;;
61385;SDS011;47256;18.904;-99.054;2022-12-18T14:02:27;16.88;;;5.75;;
61385;SDS011;47256;18.904;-99.054;2022-12-18T14:04:56;9.02;;;5.82;;
61385;SDS011;47256;18.904;-99.054;2022-12-18T14:07:24;11.18;;;6.05;;
61385;SDS011;47256;18.904;-99.054;2022-12-18T14:09:55;10.40;;;6.60;;
61385;SDS011;47256;18.904;-99.054;2022-12-18T14:12:31;11.43;;;6.63;;
61385;SDS011;47256;18.904;-99.054;2022-12-18T14:20:48;11.30;;;6.18;;
61385;SDS011;47256;18.904;-99.054;2022-12-18T14:23:33;8.70;;;5.40;;
61385;SDS011;47256;18.904;-99.054;2022-12-18T14:26:01;10.35;;;6.40;;
61385;SDS011;47256;18.904;-99.054;2022-12-18T14:28:47;26.33;;;6.90;;
61385;SDS011;47256;18.904;-99.054;2022-12-18T14:31:21;10.52;;;6.43;;
61385;SDS011;47256;18.904;-99.054;2022-12-18T14:33:51;15.85;;;8.13;;
61385;SDS011;47256;18.904;-99.054;2022-12-18T14:36:23;18.67;;;9.60;;
61385;SDS011;47256;18.904;-99.054;2022-12-18T14:38:56;22.90;;;9.90;;
61385;SDS011;47256;18.904;-99.054;2022-12-18T14:41:25;20.67;;;10.38;;
61385;SDS011;47256;18.904;-99.054;2022-12-18T14:43:54;20.92;;;10.05;;
61385;SDS011;47256;18.904;-99.054;2022-12-18T14:48:59;24.27;;;9.18;;
61385;SDS011;47256;18.904;-99.054;2022-12-18T14:51:34;34.78;;;9.27;;
61385;SDS011;47256;18.904;-99.054;2022-12-18T14:54:05;16.35;;;8.68;;
61385;SDS011;47256;18.904;-99.054;2022-12-18T14:56:44;19.67;;;9.60;;
61385;SDS011;47256;18.904;-99.054;2022-12-18T14:59:22;10.55;;;7.18;;
61385;SDS011;47256;18.904;-99.054;2022-12-18T15:05:05;19.65;;;8.95;;
61385;SDS011;47256;18.904;-99.054;2022-12-18T15:07:54;20.50;;;8.60;;
61385;SDS011;47256;18.904;-99.054;2022-12-18T15:10:31;16.63;;;8.52;;
61385;SDS011;47256;18.904;-99.054;2022-12-18T15:20:57;19.98;;;10.30;;
61385;SDS011;47256;18.904;-99.054;2022-12-18T15:26:13;17.20;;;8.93;;
61385;SDS011;47256;18.904;-99.054;2022-12-18T15:28:49;14.45;;;8.02;;
61385;SDS011;47256;18.904;-99.054;2022-12-18T15:31:37;11.63;;;7.67;;
61385;SDS011;47256;18.904;-99.054;2022-12-18T15:34:10;18.02;;;8.70;;
61385;SDS011;47256;18.904;-99.054;2022-12-18T15:36:43;16.95;;;8.52;;
61385;SDS011;47256;18.904;-99.054;2022-12-18T15:39:11;22.42;;;9.20;;
61385;SDS011;47256;18.904;-99.054;2022-12-18T15:41:41;23.60;;;9.27;;
61385;SDS011;47256;18.904;-99.054;2022-12-18T15:44:31;13.55;;;7.68;;
61385;SDS011;47256;18.904;-99.054;2022-12-18T15:46:59;16.73;;;8.02;;
61385;SDS011;47256;18.904;-99.054;2022-12-18T15:49:27;21.02;;;8.57;;
61385;SDS011;47256;18.904;-99.054;2022-12-18T15:51:58;10.23;;;6.75;;
61385;SDS011;47256;18.904;-99.054;2022-12-18T15:54:28;18.77;;;7.60;;
61385;SDS011;47256;18.904;-99.054;2022-12-18T15:57:14;23.02;;;6.97;;
61385;SDS011;47256;18.904;-99.054;2022-12-18T15:59:51;12.43;;;6.43;;
61385;SDS011;47256;18.904;-99.054;2022-12-18T16:02:27;12.80;;;6.28;;
61385;SDS011;47256;18.904;-99.054;2022-12-18T16:04:54;17.00;;;6.07;;
61385;SDS011;47256;18.904;-99.054;2022-12-18T16:07:23;11.30;;;6.20;;
61385;SDS011;47256;18.904;-99.054;2022-12-18T16:09:50;15.77;;;7.35;;
61385;SDS011;47256;18.904;-99.054;2022-12-18T16:12:19;12.80;;;8.07;;
61385;SDS011;47256;18.904;-99.054;2022-12-18T16:14:52;13.55;;;7.22;;
61385;SDS011;47256;18.904;-99.054;2022-12-18T16:17:20;13.05;;;6.55;;
61385;SDS011;47256;18.904;-99.054;2022-12-18T16:19:52;11.88;;;7.72;;
61385;SDS011;47256;18.904;-99.054;2022-12-18T16:22:24;10.43;;;6.55;;
61385;SDS011;47256;18.904;-99.054;2022-12-18T16:24:55;17.13;;;8.32;;
61385;SDS011;47256;18.904;-99.054;2022-12-18T16:27:24;14.95;;;7.05;;
61385;SDS011;47256;18.904;-99.054;2022-12-18T16:29:51;10.40;;;5.88;;
61385;SDS011;47256;18.904;-99.054;2022-12-18T16:32:20;12.30;;;7.05;;
61385;SDS011;47256;18.904;-99.054;2022-12-18T16:34:47;12.52;;;7.13;;
61385;SDS011;47256;18.904;-99.054;2022-12-18T16:37:16;13.52;;;7.10;;
61385;SDS011;47256;18.904;-99.054;2022-12-18T16:39:43;14.32;;;6.88;;
61385;SDS011;47256;18.904;-99.054;2022-12-18T16:42:17;11.80;;;6.97;;
61385;SDS011;47256;18.904;-99.054;2022-12-18T16:44:49;9.48;;;6.03;;
61385;SDS011;47256;18.904;-99.054;2022-12-18T16:47:22;13.95;;;7.38;;
61385;SDS011;47256;18.904;-99.054;2022-12-18T16:49:50;10.77;;;5.95;;
61385;SDS011;47256;18.904;-99.054;2022-12-18T16:52:24;12.98;;;6.85;;
61385;SDS011;47256;18.904;-99.054;2022-12-18T16:54:51;11.35;;;6.97;;